Time;durP1;ratioP1;P1;durP2;ratioP2;P2;SDS_P1;SDS_P2;PMS_P1;PMS_P2;Temp;Humidity;BMP_temperature;BMP_pressure;BME280_temperature;BME280_humidity;BME280_pressure;Samples;Min_cycle;Max_cycle;Signal;HPM_P1;HPM_P2
2022/11/22 00:01:17;;;;;;;10.23;3.78;;;;;;;5.37;100.00;98997.44;5071362;28;20086;-53
2022/11/22 00:03:45;;;;;;;12.00;4.18;;;;;;;5.37;100.00;98996.59;5070869;28;20075;-51
2022/11/22 00:06:13;;;;;;;12.38;4.82;;;;;;;5.40;100.00;98991.19;5070781;28;20068;-52
2022/11/22 00:08:41;;;;;;;10.95;4.20;;;;;;;5.37;100.00;98992.22;5069797;28;20087;-52
2022/11/22 00:11:09;;;;;;;15.25;5.32;;;;;;;5.41;100.00;99008.47;5070267;28;20136;-53
2022/11/22 00:13:39;;;;;;;15.25;5.45;;;;;;;5.40;100.00;98997.22;5070264;28;20471;-53
2022/11/22 00:16:07;;;;;;;12.38;4.85;;;;;;;5.44;100.00;99004.81;5072983;28;20533;-50
2022/11/22 00:18:35;;;;;;;13.63;4.57;;;;;;;5.46;100.00;99001.13;5070646;28;20564;-53
2022/11/22 00:21:07;;;;;;;11.82;4.60;;;;;;;5.44;100.00;99012.63;5070237;28;20113;-54
2022/11/22 00:23:36;;;;;;;16.75;5.25;;;;;;;5.46;100.00;99021.19;5069658;28;20050;-51
2022/11/22 00:26:05;;;;;;;14.68;5.32;;;;;;;5.48;100.00;99014.91;5069628;28;20132;-53
2022/11/22 00:28:33;;;;;;;13.75;5.28;;;;;;;5.46;100.00;99010.75;5072690;28;20483;-52
2022/11/22 00:31:03;;;;;;;10.75;4.78;;;;;;;5.52;100.00;99005.91;5070719;28;20395;-54
2022/11/22 00:33:31;;;;;;;12.88;6.47;;;;;;;5.51;100.00;99006.03;5069612;28;20495;-54
2022/11/22 00:35:59;;;;;;;14.32;5.55;;;;;;;5.53;100.00;98996.31;5070315;28;20040;-54
2022/11/22 00:38:28;;;;;;;11.95;5.97;;;;;;;5.57;100.00;99003.78;5071238;28;20044;-54
2022/11/22 00:40:56;;;;;;;13.68;6.30;;;;;;;5.60;100.00;99000.13;5073283;28;20557;-51
2022/11/22 00:43:24;;;;;;;15.25;7.55;;;;;;;5.50;100.00;98999.16;5071665;28;20044;-54
2022/11/22 00:45:52;;;;;;;12.90;6.50;;;;;;;5.50;100.00;98997.38;5070038;28;20056;-53
2022/11/22 00:48:22;;;;;;;15.30;7.10;;;;;;;5.56;100.00;98998.69;5069777;28;20094;-54
2022/11/22 00:50:50;;;;;;;13.23;5.88;;;;;;;5.54;100.00;98993.59;5071510;28;20040;-52
2022/11/22 00:53:18;;;;;;;14.43;6.38;;;;;;;5.53;100.00;98991.09;5073245;28;20123;-53
2022/11/22 00:55:47;;;;;;;13.35;6.03;;;;;;;5.55;100.00;98997.88;5069881;28;20429;-54
2022/11/22 00:58:15;;;;;;;16.80;5.90;;;;;;;5.55;100.00;98997.03;5069583;28;20139;-53
2022/11/22 01:00:43;;;;;;;13.80;5.18;;;;;;;5.59;100.00;98991.47;5070725;28;20446;-52
2022/11/22 01:03:14;;;;;;;13.02;5.03;;;;;;;5.62;100.00;98992.19;5073112;28;20373;-54
2022/11/22 01:05:43;;;;;;;16.88;5.47;;;;;;;5.64;100.00;98995.53;5073078;28;20079;-52
2022/11/22 01:08:11;;;;;;;13.68;5.38;;;;;;;5.62;100.00;99000.00;5103302;28;20060;-52
2022/11/22 01:10:39;;;;;;;13.20;5.30;;;;;;;5.62;100.00;99010.44;5068311;28;20541;-54
2022/11/22 01:13:12;;;;;;;12.85;4.65;;;;;;;5.55;100.00;99008.28;5069828;28;20056;-52
2022/11/22 01:15:40;;;;;;;10.50;4.90;;;;;;;5.55;100.00;99017.91;5070674;28;20070;-53
2022/11/22 01:18:09;;;;;;;13.73;5.25;;;;;;;5.55;100.00;99004.88;5073058;28;20059;-53
2022/11/22 01:20:37;;;;;;;10.65;4.65;;;;;;;5.62;100.00;99000.00;5073055;28;20139;-55
2022/11/22 01:23:09;;;;;;;17.50;5.60;;;;;;;5.58;100.00;98994.19;5069302;28;20535;-55
2022/11/22 01:25:37;;;;;;;14.25;5.68;;;;;;;5.56;100.00;99011.72;5068624;28;20570;-51
2022/11/22 01:28:06;;;;;;;13.55;6.13;;;;;;;5.55;100.00;99010.09;5070240;28;20047;-53
2022/11/22 01:30:34;;;;;;;14.52;5.68;;;;;;;5.62;100.00;99010.44;5072490;28;20048;-49
2022/11/22 01:33:02;;;;;;;15.57;6.35;;;;;;;5.64;100.00;99009.38;5070312;28;20048;-52
2022/11/22 01:35:30;;;;;;;15.70;6.32;;;;;;;5.63;100.00;99001.69;5068586;28;20949;-52
2022/11/22 01:37:58;;;;;;;12.45;6.43;;;;;;;5.68;100.00;98995.16;5072595;28;20123;-53
2022/11/22 01:40:28;;;;;;;18.33;6.88;;;;;;;5.67;100.00;98996.13;5072425;28;20517;-48
2022/11/22 01:42:59;;;;;;;16.38;7.25;;;;;;;5.67;100.00;98998.75;5072301;28;20465;-50
2022/11/22 01:45:41;;;;;;;16.80;5.93;;;;;;;5.67;100.00;98997.91;5074747;28;20036;-50
2022/11/22 01:48:23;;;;;;;11.90;5.68;;;;;;;5.69;100.00;98986.41;5076873;28;20548;-49
2022/11/22 01:50:54;;;;;;;12.32;5.72;;;;;;;5.64;100.00;98988.53;5073413;28;20453;-49
2022/11/22 01:53:27;;;;;;;13.60;6.45;;;;;;;5.57;100.00;98982.91;5074234;28;20049;-48
2022/11/22 01:56:00;;;;;;;11.82;5.85;;;;;;;5.53;100.00;98994.53;5076631;28;20048;-47
2022/11/22 01:58:31;;;;;;;12.88;5.70;;;;;;;5.53;100.00;98991.91;5076478;28;20044;-51
2022/11/22 02:01:03;;;;;;;10.55;5.25;;;;;;;5.51;100.00;99001.66;5109143;28;20055;-46
2022/11/22 02:03:34;;;;;;;11.85;5.90;;;;;;;5.48;100.00;99008.84;5076699;28;20466;-49
2022/11/22 02:06:03;;;;;;;11.00;5.88;;;;;;;5.38;100.00;99011.31;5076531;28;20048;-49
2022/11/22 02:08:38;;;;;;;11.68;5.55;;;;;;;5.36;100.00;99008.00;5076446;28;20052;-48
2022/11/22 02:11:09;;;;;;;11.55;5.40;;;;;;;5.34;100.00;99010.69;5072990;28;20036;-50
2022/11/22 02:13:40;;;;;;;11.57;5.60;;;;;;;5.32;100.00;99006.53;5072810;28;21059;-51
2022/11/22 02:16:09;;;;;;;10.98;4.70;;;;;;;5.32;100.00;99009.16;5073621;28;20044;-51
2022/11/22 02:18:38;;;;;;;12.73;5.00;;;;;;;5.33;100.00;99018.63;5074293;28;20048;-51
2022/11/22 02:21:07;;;;;;;11.48;4.82;;;;;;;5.32;100.00;99023.00;5071729;28;20052;-49
2022/11/22 02:23:45;;;;;;;12.85;5.38;;;;;;;5.24;100.00;99020.94;5074991;28;20131;-51
2022/11/22 02:26:16;;;;;;;13.38;4.32;;;;;;;5.25;100.00;99027.84;5074766;28;20037;-49
2022/11/22 02:28:45;;;;;;;11.05;4.90;;;;;;;5.25;100.00;99030.44;5072603;28;20044;-49
2022/11/22 02:31:36;;;;;;;12.43;5.43;;;;;;;5.30;100.00;99031.88;5074468;28;20055;-49
2022/11/22 02:34:04;;;;;;;10.63;4.38;;;;;;;5.26;100.00;99036.47;5075904;28;20109;-49
2022/11/22 02:36:37;;;;;;;11.18;4.95;;;;;;;5.26;100.00;99031.25;5075879;28;20045;-48
2022/11/22 02:39:08;;;;;;;12.80;4.88;;;;;;;5.23;100.00;99026.28;5073714;28;20122;-52
2022/11/22 02:41:39;;;;;;;11.10;4.28;;;;;;;5.27;100.00;99026.91;5070765;28;20113;-52
2022/11/22 02:44:11;;;;;;;10.82;4.32;;;;;;;5.26;100.00;99026.03;5074488;28;20036;-48
2022/11/22 02:46:47;;;;;;;10.77;3.90;;;;;;;5.23;100.00;99029.69;5108660;28;20530;-51
2022/11/22 02:49:18;;;;;;;15.77;4.70;;;;;;;5.22;100.00;99019.38;5075795;28;20376;-50
2022/11/22 02:51:49;;;;;;;14.45;5.00;;;;;;;5.18;100.00;99012.72;5075734;28;20067;-48
2022/11/22 02:54:17;;;;;;;15.25;5.13;;;;;;;5.19;100.00;99015.22;5075486;28;20521;-49
2022/11/22 02:56:47;;;;;;;14.48;4.47;;;;;;;5.16;100.00;99020.66;5074100;28;20076;-50
2022/11/22 02:59:15;;;;;;;10.07;5.13;;;;;;;5.19;100.00;99028.25;5075373;28;20044;-48
2022/11/22 03:01:46;;;;;;;14.80;5.00;;;;;;;5.16;100.00;99036.31;5075476;28;20054;-47
2022/11/22 03:04:23;;;;;;;12.68;4.63;;;;;;;5.18;100.00;99029.22;5075401;28;20055;-50
2022/11/22 03:06:53;;;;;;;17.10;4.68;;;;;;;5.18;100.00;99033.59;5075300;28;20053;-47
2022/11/22 03:09:22;;;;;;;11.60;5.00;;;;;;;5.14;100.00;99024.31;5075189;28;20413;-48
2022/11/22 03:11:52;;;;;;;16.38;5.15;;;;;;;5.13;100.00;99030.50;5075304;28;20146;-48
2022/11/22 03:14:20;;;;;;;12.43;4.63;;;;;;;5.14;100.00;99035.59;5075219;28;20054;-49
2022/11/22 03:16:49;;;;;;;13.13;4.78;;;;;;;5.12;100.00;99040.06;5075342;28;20058;-50
2022/11/22 03:19:17;;;;;;;13.00;5.13;;;;;;;5.11;100.00;99034.97;5075063;28;20055;-49
2022/11/22 03:21:45;;;;;;;13.95;4.60;;;;;;;5.09;100.00;99045.50;5075068;28;20072;-48
2022/11/22 03:24:13;;;;;;;14.68;4.10;;;;;;;5.07;100.00;99056.03;5074996;28;20044;-49
2022/11/22 03:26:45;;;;;;;11.52;3.45;;;;;;;5.08;100.00;99051.66;5073916;28;20551;-51
2022/11/22 03:29:15;;;;;;;12.90;3.72;;;;;;;5.08;100.00;99056.88;5071585;28;20044;-52
2022/11/22 03:31:43;;;;;;;12.95;3.35;;;;;;;5.06;100.00;99046.56;5072056;28;20106;-49
2022/11/22 03:34:12;;;;;;;14.15;3.80;;;;;;;5.04;100.00;99051.03;5070742;28;20071;-51
2022/11/22 03:36:40;;;;;;;12.30;3.45;;;;;;;5.01;100.00;99058.25;5070586;28;20054;-53
2022/11/22 03:39:08;;;;;;;15.68;3.78;;;;;;;4.96;100.00;99060.34;5070080;28;20640;-51
2022/11/22 03:41:36;;;;;;;17.70;3.78;;;;;;;4.94;100.00;99063.06;5070851;28;20068;-52
2022/11/22 03:44:05;;;;;;;13.55;3.28;;;;;;;4.94;100.00;99057.03;5070256;28;20056;-52
2022/11/22 03:46:34;;;;;;;12.55;3.10;;;;;;;4.92;100.00;99062.31;5073348;28;20094;-52
2022/11/22 03:49:02;;;;;;;10.65;2.95;;;;;;;4.92;100.00;99057.09;5071289;28;20411;-52
2022/11/22 03:51:31;;;;;;;12.40;3.00;;;;;;;4.91;100.00;99066.69;5069213;28;20065;-52
2022/11/22 03:53:59;;;;;;;12.60;2.95;;;;;;;4.88;100.00;99068.69;5069613;28;20123;-51
2022/11/22 03:56:27;;;;;;;10.50;2.78;;;;;;;4.91;100.00;99084.13;5072176;28;20044;-50
2022/11/22 03:58:55;;;;;;;9.77;2.40;;;;;;;4.88;100.00;99087.75;5069890;28;20056;-52
2022/11/22 04:01:23;;;;;;;13.20;2.95;;;;;;;4.85;100.00;99090.59;5070602;28;20499;-53
2022/11/22 04:03:53;;;;;;;15.95;3.35;;;;;;;4.81;100.00;99096.91;5070672;28;20072;-52
2022/11/22 04:06:21;;;;;;;14.70;2.67;;;;;;;4.83;100.00;99086.41;5070212;28;20123;-52
2022/11/22 04:08:49;;;;;;;14.45;3.03;;;;;;;4.81;100.00;99089.09;5069354;28;20453;-50
2022/11/22 04:11:17;;;;;;;9.32;2.80;;;;;;;4.80;100.00;99095.28;5069981;28;20123;-53
2022/11/22 04:16:31;;;;;;;16.40;2.78;;;;;;;4.76;100.00;99087.75;5073985;28;20049;-53
2022/11/22 04:19:00;;;;;;;12.05;2.67;;;;;;;4.71;100.00;99090.69;5072362;28;20135;-52
2022/11/22 04:21:33;;;;;;;15.85;2.40;;;;;;;4.72;100.00;99101.00;5070196;28;20098;-53
2022/11/22 04:26:47;;;;;;;10.90;2.50;;;;;;;4.68;100.00;99115.16;5072951;28;20290;-47
2022/11/22 04:29:16;;;;;;;18.40;2.80;;;;;;;4.68;100.00;99117.78;5073356;28;20098;-50
2022/11/22 04:34:33;;;;;;;13.00;2.53;;;;;;;4.59;100.00;99115.78;5069613;28;20105;-49
2022/11/22 04:37:02;;;;;;;18.70;2.92;;;;;;;4.62;100.00;99115.59;5070539;28;20047;-49
2022/11/22 04:39:30;;;;;;;16.10;2.65;;;;;;;4.61;100.00;99111.31;5069424;28;20135;-46
2022/11/22 04:44:46;;;;;;;13.10;2.47;;;;;;;4.55;100.00;99109.97;5073555;28;20055;-48
2022/11/22 04:47:57;;;;;;;14.05;2.42;;;;;;;4.47;100.00;99107.06;5073466;28;20043;-50
2022/11/22 04:52:53;;;;;;;14.77;2.33;;;;;;;4.39;100.00;99106.72;5073451;28;20530;-48
2022/11/22 04:55:22;;;;;;;12.32;2.38;;;;;;;4.38;100.00;99115.47;5106055;28;20399;-49
2022/11/22 04:57:50;;;;;;;14.25;2.50;;;;;;;4.40;100.00;99116.19;5073413;28;20127;-48
2022/11/22 05:00:26;;;;;;;9.80;1.98;;;;;;;4.37;100.00;99122.44;5072908;28;20056;-50
2022/11/22 05:02:54;;;;;;;10.48;1.83;;;;;;;4.38;100.00;99125.91;5071524;28;20064;-48
2022/11/22 05:05:25;;;;;;;11.07;2.22;;;;;;;4.35;100.00;99120.88;5072996;28;20114;-50
2022/11/22 05:07:53;;;;;;;12.10;3.13;;;;;;;4.30;100.00;99131.59;5073375;28;20063;-48
2022/11/22 05:10:22;;;;;;;10.88;2.15;;;;;;;4.30;100.00;99121.19;5071760;28;20044;-49
2022/11/22 05:12:55;;;;;;;13.13;2.60;;;;;;;4.28;100.00;99133.50;5073103;28;20056;-49
2022/11/22 05:15:24;;;;;;;9.70;1.88;;;;;;;4.29;100.00;99136.91;5072907;28;20127;-46
2022/11/22 05:17:52;;;;;;;10.05;2.55;;;;;;;4.24;100.00;99139.81;5073195;28;20123;-55
2022/11/22 05:20:21;;;;;;;15.35;2.85;;;;;;;4.24;100.00;99139.81;5072212;28;20467;-52
2022/11/22 05:25:34;;;;;;;13.70;2.85;;;;;;;4.15;100.00;99151.66;5049883;28;20114;-48
2022/11/22 05:28:02;;;;;;;13.65;2.10;;;;;;;4.12;100.00;99149.25;5072755;28;20550;-48
2022/11/22 05:30:30;;;;;;;11.52;2.03;;;;;;;4.13;100.00;99143.13;5072651;28;20106;-51
2022/11/22 05:33:02;;;;;;;17.05;2.35;;;;;;;4.12;100.00;99149.25;5072911;28;20048;-51
2022/11/22 05:35:30;;;;;;;16.52;3.10;;;;;;;4.07;100.00;99144.34;5072953;28;20548;-50
2022/11/22 05:38:01;;;;;;;10.30;1.90;;;;;;;4.07;100.00;99151.31;5072870;28;20132;-49
2022/11/22 05:40:29;;;;;;;10.45;2.30;;;;;;;3.98;100.00;99150.16;5072876;28;20454;-50
2022/11/22 05:42:57;;;;;;;13.95;2.50;;;;;;;3.91;100.00;99148.06;5072627;28;20049;-50
2022/11/22 05:45:29;;;;;;;12.43;2.65;;;;;;;3.93;100.00;99153.97;5071338;28;20052;-50
2022/11/22 05:47:59;;;;;;;14.75;2.92;;;;;;;3.84;100.00;99153.63;5073056;28;20547;-48
2022/11/22 05:50:27;;;;;;;12.02;2.35;;;;;;;3.85;100.00;99155.31;5072775;28;20110;-50
2022/11/22 05:52:59;;;;;;;11.45;2.40;;;;;;;3.83;100.00;99152.00;5072478;28;20041;-47
2022/11/22 05:55:29;;;;;;;;;;;;;;;3.84;100.00;99153.63;5072128;28;20383;-51
2022/11/22 05:58:00;;;;;;;10.38;2.00;;;;;;;3.87;100.00;99152.59;5072793;28;20006;-48
2022/11/22 06:00:28;;;;;;;10.88;2.53;;;;;;;3.78;100.00;99156.63;5072464;28;20517;-47
2022/11/22 06:03:00;;;;;;;10.23;2.13;;;;;;;3.76;100.00;99152.47;5072873;28;20051;-50
2022/11/22 06:05:29;;;;;;;12.43;2.20;;;;;;;3.74;100.00;99147.38;5072385;28;20053;-51
2022/11/22 06:07:59;;;;;;;10.45;1.98;;;;;;;3.71;100.00;99157.97;5072173;28;20043;-48
2022/11/22 06:10:29;;;;;;;13.38;2.38;;;;;;;3.67;100.00;99153.91;5072285;28;20495;-48
2022/11/22 06:12:58;;;;;;;14.80;2.65;;;;;;;3.64;100.00;99159.28;5104913;28;20057;-48
2022/11/22 06:15:26;;;;;;;12.30;2.10;;;;;;;3.61;100.00;99156.88;5070897;28;20071;-49
2022/11/22 06:17:54;;;;;;;12.85;2.10;;;;;;;3.58;100.00;99155.28;5069190;28;20572;-48
2022/11/22 06:20:22;;;;;;;12.32;2.60;;;;;;;3.54;100.00;99161.63;5069197;28;20052;-50
2022/11/22 06:22:51;;;;;;;13.55;2.60;;;;;;;3.51;100.00;99160.03;5072336;28;20086;-48
2022/11/22 06:25:19;;;;;;;11.63;2.22;;;;;;;3.44;100.00;99166.56;5067337;28;20075;-51
2022/11/22 06:27:49;;;;;;;9.05;2.22;;;;;;;3.44;100.00;99168.34;5069439;28;20044;-47
2022/11/22 06:30:17;;;;;;;12.57;2.10;;;;;;;3.40;100.00;99167.69;5072347;28;20053;-48
2022/11/22 06:32:45;;;;;;;16.25;3.15;;;;;;;3.36;100.00;99171.41;5074630;28;20491;-49
2022/11/22 06:35:13;;;;;;;11.13;2.63;;;;;;;3.35;100.00;99175.78;5075994;28;20127;-49
2022/11/22 06:37:41;;;;;;;13.80;3.47;;;;;;;3.34;100.00;99173.25;5075804;28;20375;-48
2022/11/22 06:40:11;;;;;;;15.23;3.40;;;;;;;3.30;100.00;99167.44;5075640;28;20526;-49
2022/11/22 06:42:39;;;;;;;14.38;2.78;;;;;;;3.28;100.00;99174.47;5072371;28;20044;-49
2022/11/22 06:45:10;;;;;;;16.30;3.28;;;;;;;3.32;100.00;99180.31;5073456;28;20079;-49
2022/11/22 06:47:38;;;;;;;10.40;2.42;;;;;;;3.22;100.00;99183.47;5072684;28;20106;-47
2022/11/22 06:50:07;;;;;;;13.65;3.10;;;;;;;3.24;100.00;99174.75;5072141;28;20120;-48
2022/11/22 06:52:35;;;;;;;15.00;2.97;;;;;;;3.20;100.00;99176.69;5075064;28;20071;-47
2022/11/22 06:55:03;;;;;;;11.70;2.78;;;;;;;3.19;100.00;99181.06;5075464;28;20101;-50
2022/11/22 06:57:35;;;;;;;11.80;2.78;;;;;;;3.14;100.00;99183.09;5075507;28;20044;-46
2022/11/22 07:00:04;;;;;;;13.95;2.80;;;;;;;3.19;100.00;99182.81;5075424;28;20629;-47
2022/11/22 07:02:33;;;;;;;10.07;3.10;;;;;;;3.15;100.00;99186.53;5072491;28;20044;-52
2022/11/22 07:05:01;;;;;;;9.13;2.63;;;;;;;3.13;100.00;99197.03;5070642;28;20131;-47
2022/11/22 07:07:49;;;;;;;16.33;3.50;;;;;;;3.09;100.00;99192.13;5071845;28;20048;-48
2022/11/22 07:10:18;;;;;;;10.40;2.90;;;;;;;3.07;100.00;99196.56;5071903;28;20372;-48
2022/11/22 07:12:46;;;;;;;11.18;2.65;;;;;;;3.10;100.00;99197.22;5072056;28;20082;-51
2022/11/22 07:15:14;;;;;;;15.95;4.00;;;;;;;3.08;100.00;99199.09;5071751;28;20139;-54
2022/11/22 07:17:44;;;;;;;14.50;3.45;;;;;;;3.05;100.00;99207.03;5070759;28;20057;-53
2022/11/22 07:20:12;;;;;;;15.60;2.90;;;;;;;3.00;100.00;99203.88;5075065;28;20067;-46
2022/11/22 07:22:40;;;;;;;12.57;2.70;;;;;;;3.03;100.00;99203.72;5074934;28;20044;-53
2022/11/22 07:25:08;;;;;;;11.07;2.55;;;;;;;2.96;100.00;99207.56;5075120;28;20048;-53
2022/11/22 07:27:36;;;;;;;15.48;2.83;;;;;;;2.89;100.00;99212.34;5074538;28;20037;-49
2022/11/22 07:30:05;;;;;;;13.45;3.25;;;;;;;2.91;100.00;99223.44;5074864;28;20053;-49
2022/11/22 07:32:33;;;;;;;11.63;3.20;;;;;;;2.96;100.00;99217.97;5073397;28;20044;-54
2022/11/22 07:35:03;;;;;;;16.27;3.05;;;;;;;2.91;100.00;99218.25;5071021;28;20048;-52
2022/11/22 07:37:31;;;;;;;11.70;2.45;;;;;;;2.95;100.00;99222.34;5072455;28;20040;-50
2022/11/22 07:39:59;;;;;;;12.60;2.65;;;;;;;2.96;100.00;99224.03;5074282;28;20140;-53
2022/11/22 07:42:27;;;;;;;13.10;3.28;;;;;;;2.99;100.00;99225.59;5070235;28;20514;-51
2022/11/22 07:44:55;;;;;;;12.60;3.22;;;;;;;3.07;100.00;99232.91;5071598;28;20040;-49
2022/11/22 07:47:23;;;;;;;11.48;3.05;;;;;;;3.12;100.00;99234.34;5073072;28;20036;-52
2022/11/22 07:49:52;;;;;;;10.93;2.58;;;;;;;3.16;100.00;99237.56;5071681;28;20388;-51
2022/11/22 07:52:21;;;;;;;15.75;3.30;;;;;;;3.22;100.00;99237.22;5070170;28;20048;-49
2022/11/22 07:54:49;;;;;;;16.08;4.05;;;;;;;3.33;100.00;99244.38;5073709;28;20533;-50
2022/11/22 07:57:17;;;;;;;13.38;3.28;;;;;;;3.31;100.00;99235.81;5074299;28;20120;-50
2022/11/22 07:59:45;;;;;;;15.35;3.55;;;;;;;3.39;100.00;99233.59;5072838;28;20106;-49
2022/11/22 08:02:14;;;;;;;16.23;4.10;;;;;;;3.38;100.00;99239.69;5073994;28;20044;-51
2022/11/22 08:04:42;;;;;;;16.10;4.18;;;;;;;3.44;100.00;99239.34;5071378;28;20106;-51
2022/11/22 08:07:10;;;;;;;13.57;3.50;;;;;;;3.48;100.00;99242.59;5070797;28;20044;-50
2022/11/22 08:09:40;;;;;;;11.15;2.92;;;;;;;3.52;100.00;99247.50;5072768;28;20109;-52
2022/11/22 08:12:08;;;;;;;12.88;3.50;;;;;;;3.55;100.00;99244.72;5070693;28;20629;-52
2022/11/22 08:14:36;;;;;;;11.82;3.45;;;;;;;3.59;100.00;99241.94;5070255;28;20109;-49
2022/11/22 08:17:04;;;;;;;14.55;3.75;;;;;;;3.66;100.00;99240.63;5070840;28;20056;-54
2022/11/22 08:19:34;;;;;;;11.60;4.03;;;;;;;3.68;100.00;99241.34;5072713;28;20045;-53
2022/11/22 08:22:02;;;;;;;16.30;3.50;;;;;;;3.81;100.00;99234.47;5073887;28;20098;-53
2022/11/22 08:24:30;;;;;;;13.18;3.25;;;;;;;3.80;100.00;99240.59;5068191;28;20057;-52
2022/11/22 08:27:00;;;;;;;11.30;3.08;;;;;;;3.95;100.00;99238.78;5071485;28;20070;-47
2022/11/22 08:29:28;;;;;;;11.40;2.85;;;;;;;3.90;100.00;99243.47;5073205;28;20070;-48
2022/11/22 08:31:57;;;;;;;17.55;3.42;;;;;;;3.93;100.00;99242.41;5073279;28;20102;-47
2022/11/22 08:34:25;;;;;;;17.63;2.88;;;;;;;3.97;100.00;99242.13;5073355;28;20471;-50
2022/11/22 08:36:53;;;;;;;15.38;3.30;;;;;;;3.95;100.00;99245.75;5070380;28;20514;-48
2022/11/22 08:39:22;;;;;;;14.45;2.60;;;;;;;3.98;100.00;99245.56;5069628;28;20044;-46
2022/11/22 08:41:50;;;;;;;11.93;2.72;;;;;;;4.02;100.00;99241.84;5073017;28;20106;-47
2022/11/22 08:44:19;;;;;;;15.85;2.50;;;;;;;4.04;100.00;99242.59;5073355;28;20131;-48
2022/11/22 08:46:47;;;;;;;14.40;2.85;;;;;;;4.06;100.00;99249.38;5073208;28;20052;-47
2022/11/22 08:49:15;;;;;;;9.32;2.30;;;;;;;4.14;100.00;99253.25;5073182;28;20064;-47
2022/11/22 08:51:45;;;;;;;12.40;2.60;;;;;;;4.14;100.00;99251.47;5073097;28;20052;-50
2022/11/22 08:54:15;;;;;;;9.52;2.58;;;;;;;4.20;100.00;99251.09;5073175;28;20040;-49
2022/11/22 08:56:43;;;;;;;13.98;3.10;;;;;;;4.21;100.00;99252.75;5073144;28;20411;-50
2022/11/22 08:59:11;;;;;;;10.25;2.35;;;;;;;4.27;100.00;99246.31;5073062;28;20041;-51
2022/11/22 09:01:40;;;;;;;10.88;2.40;;;;;;;4.31;100.00;99252.16;5072868;28;20048;-50
2022/11/22 09:04:09;;;;;;;12.10;2.40;;;;;;;4.36;100.00;99255.28;5072836;28;20519;-47
2022/11/22 09:06:37;;;;;;;8.25;2.10;;;;;;;4.39;100.00;99258.53;5071250;28;20503;-48
2022/11/22 09:09:26;;;;;;;10.50;2.90;;;;;;;4.47;100.00;99252.84;5067756;28;20048;-49
2022/11/22 09:12:05;;;;;;;14.05;3.10;;;;;;;4.48;100.00;99257.09;5068423;28;20056;-47
2022/11/22 09:14:33;;;;;;;10.98;2.45;;;;;;;4.54;100.00;99261.06;5070193;28;20057;-47
2022/11/22 09:17:04;;;;;;;12.38;2.53;;;;;;;4.65;100.00;99263.81;5072834;28;20052;-48
2022/11/22 09:19:32;;;;;;;14.98;3.20;;;;;;;4.71;100.00;99265.19;5071441;28;20081;-47
2022/11/22 09:22:00;;;;;;;14.88;2.75;;;;;;;4.71;100.00;99263.41;5072046;28;20098;-49
2022/11/22 09:24:29;;;;;;;8.20;2.42;;;;;;;4.76;100.00;99265.72;5072787;28;20414;-48
2022/11/22 09:26:57;;;;;;;8.13;2.25;;;;;;;4.85;100.00;99272.94;5072806;28;20076;-46
2022/11/22 09:29:25;;;;;;;9.65;2.42;;;;;;;4.89;100.00;99273.56;5072522;28;20094;-51
2022/11/22 09:31:54;;;;;;;10.32;2.47;;;;;;;4.91;100.00;99276.91;5072708;28;20087;-52
2022/11/22 09:34:24;;;;;;;13.35;2.40;;;;;;;4.94;100.00;99278.47;5072609;28;20108;-50
2022/11/22 09:36:52;;;;;;;10.82;2.38;;;;;;;4.94;100.00;99279.28;5072703;28;20143;-48
2022/11/22 09:39:20;;;;;;;10.88;2.20;;;;;;;4.98;100.00;99275.53;5071297;28;20053;-48
2022/11/22 09:42:16;;;;;;;10.63;2.47;;;;;;;5.06;100.00;99280.25;5072708;28;20048;-49
2022/11/22 09:44:58;;;;;;;10.40;2.35;;;;;;;5.12;100.00;99279.00;5072537;28;20544;-51
2022/11/22 09:47:38;;;;;;;8.63;2.30;;;;;;;5.19;100.00;99275.88;5072609;28;20059;-47
2022/11/22 09:50:18;;;;;;;9.27;2.35;;;;;;;5.15;100.00;99278.78;5072369;28;20044;-47
2022/11/22 09:52:54;;;;;;;8.88;2.30;;;;;;;5.17;100.00;99282.97;5072469;28;20139;-47
2022/11/22 09:55:26;;;;;;;10.48;2.15;;;;;;;5.15;100.00;99273.56;5072267;28;20115;-47
2022/11/22 09:58:02;;;;;;;;;;;;;;;5.22;100.00;99280.03;5072961;28;20391;-48
2022/11/22 10:00:31;;;;;;;6.90;1.88;;;;;;;5.24;100.00;99273.78;5072478;28;19935;-48
2022/11/22 10:03:08;;;;;;;9.40;2.08;;;;;;;5.40;100.00;99280.59;5070889;28;20039;-49
2022/11/22 10:05:49;;;;;;;10.32;1.83;;;;;;;5.46;100.00;99274.94;5069896;28;20056;-48
2022/11/22 10:08:34;;;;;;;8.43;2.10;;;;;;;5.49;100.00;99276.50;5075571;28;20106;-48
2022/11/22 10:11:05;;;;;;;12.55;2.70;;;;;;;5.52;100.00;99284.94;5076123;28;20044;-47
2022/11/22 10:13:39;;;;;;;6.97;2.20;;;;;;;5.67;100.00;99279.59;5076066;28;20052;-49
2022/11/22 10:16:14;;;;;;;10.25;2.00;;;;;;;5.69;100.00;99275.13;5074053;28;20406;-49
2022/11/22 10:18:49;;;;;;;14.18;2.60;;;;;;;5.75;100.00;99272.06;5073135;28;20041;-49
2022/11/22 10:21:19;;;;;;;7.05;1.65;;;;;;;5.76;100.00;99268.53;5076105;28;20049;-50
2022/11/22 10:23:48;;;;;;;8.18;1.80;;;;;;;5.78;100.00;99266.66;5076284;28;20064;-47
2022/11/22 10:26:24;;;;;;;12.73;2.15;;;;;;;5.81;100.00;99269.03;5076022;28;20090;-49
2022/11/22 10:29:13;;;;;;;5.38;1.65;;;;;;;5.84;100.00;99255.78;5075729;28;20037;-50
2022/11/22 10:31:51;;;;;;;10.68;2.42;;;;;;;5.89;100.00;99258.91;5074790;28;20053;-47
2022/11/22 10:34:30;;;;;;;10.18;2.60;;;;;;;5.92;100.00;99256.06;5072290;28;20055;-52
2022/11/22 10:37:07;;;;;;;7.88;1.90;;;;;;;6.02;100.00;99245.00;5074750;28;20132;-51
2022/11/22 10:39:55;;;;;;;10.10;2.03;;;;;;;6.02;100.00;99250.22;5075750;28;20102;-53
2022/11/22 10:42:48;;;;;;;9.75;1.98;;;;;;;6.00;100.00;99252.94;5075702;28;20098;-48
2022/11/22 10:45:20;;;;;;;;;;;;;;;6.07;100.00;99256.78;5075864;28;20131;-48
2022/11/22 10:47:57;;;;;;;11.52;2.17;;;;;;;6.14;100.00;99244.13;5075302;28;19920;-51
2022/11/22 10:50:33;;;;;;;11.05;1.92;;;;;;;6.28;100.00;99250.94;5075214;28;20051;-50
2022/11/22 10:53:13;;;;;;;9.93;1.92;;;;;;;6.22;100.00;99248.81;5075289;28;20048;-51
2022/11/22 10:55:54;;;;;;;11.48;1.70;;;;;;;6.27;100.00;99246.66;5075085;28;20569;-48
2022/11/22 10:58:34;;;;;;;8.57;1.70;;;;;;;6.31;100.00;99236.84;5075360;28;20055;-51
2022/11/22 11:01:12;;;;;;;7.13;1.45;;;;;;;6.33;100.00;99234.97;5074195;28;20086;-51
2022/11/22 11:03:43;;;;;;;7.95;1.52;;;;;;;6.36;100.00;99229.50;5075532;28;20055;-49
2022/11/22 11:06:20;;;;;;;8.70;2.00;;;;;;;6.40;100.00;99231.78;5075315;28;20449;-48
2022/11/22 11:09:12;;;;;;;8.80;1.58;;;;;;;6.41;100.00;99230.84;5075297;28;20033;-47
2022/11/22 11:12:05;;;;;;;8.18;1.70;;;;;;;6.40;100.00;99226.56;5075066;28;20040;-55
2022/11/22 11:14:40;;;;;;;8.70;1.95;;;;;;;6.43;100.00;99226.34;5072085;28;20533;-56
2022/11/22 11:17:15;;;;;;;8.15;1.50;;;;;;;6.49;100.00;99221.59;5070396;28;20052;-56
2022/11/22 11:19:45;;;;;;;9.15;1.75;;;;;;;6.47;100.00;99229.53;5072245;28;20041;-57
2022/11/22 11:22:17;;;;;;;8.65;2.00;;;;;;;6.49;100.00;99229.44;5074737;28;20045;-56
2022/11/22 11:25:30;;;;;;;8.75;1.50;;;;;;;6.56;100.00;99223.66;5074831;28;20486;-50
2022/11/22 11:28:02;;;;;;;6.50;1.33;;;;;;;6.46;100.00;99222.66;5073623;28;20119;-51
2022/11/22 11:30:39;;;;;;;5.07;1.70;;;;;;;6.45;100.00;99220.16;5071053;28;20406;-57
2022/11/22 11:33:18;;;;;;;6.45;1.65;;;;;;;6.56;100.00;99209.78;5070185;28;20072;-57
2022/11/22 11:35:47;;;;;;;4.95;1.40;;;;;;;6.51;100.00;99217.94;5071070;28;20878;-53
2022/11/22 11:38:31;;;;;;;6.38;1.35;;;;;;;6.49;100.00;99216.38;5072144;28;20051;-50
2022/11/22 11:41:17;;;;;;;7.03;1.30;;;;;;;6.63;100.00;99210.97;5075114;28;20060;-49
2022/11/22 11:43:46;;;;;;;6.28;1.40;;;;;;;6.65;100.00;99219.50;5074997;28;20055;-51
2022/11/22 11:46:19;;;;;;;3.75;1.35;;;;;;;6.67;100.00;99212.41;5074479;28;20044;-52
2022/11/22 11:48:48;;;;;;;4.78;1.40;;;;;;;6.72;100.00;99204.22;5074231;28;20076;-52
2022/11/22 11:51:37;;;;;;;7.40;1.77;;;;;;;6.75;100.00;99201.38;5074203;28;20052;-56
2022/11/22 11:54:26;;;;;;;6.13;1.60;;;;;;;6.74;100.00;99203.16;5074297;28;20040;-57
2022/11/22 11:56:57;;;;;;;4.10;1.33;;;;;;;6.85;100.00;99204.94;5073890;28;20392;-56
2022/11/22 11:59:45;;;;;;;3.65;1.30;;;;;;;6.91;100.00;99206.25;5070725;28;20128;-56
2022/11/22 12:02:16;;;;;;;7.65;1.30;;;;;;;7.03;100.00;99207.13;5072766;28;20476;-52